ENFB/FBU METAR and TAF weather

Enter ICAO airport designator
Station Type Date Time Source
ENFB METAR 2018/07/19 07:20 UTC NOAA

ENFB 190720Z AUTO VRB08KT //// FEW017/// 14/10 Q1019 W///S3


Station Type Date Time Source
ENFB Decoded METAR 2018/07/19 07:20 UTC NOAA

Oslo / Fornebu, Norway (ENFB) 59-54N 010-38E 17M
Jul 19, 2018 - 03:20 AM EDT / 2018.07.19 0720 UTC
Wind: Variable at 9 MPH (8 KT):0
Sky conditions: mostly clear
Temperature: 57 F (14 C)
Dew Point: 50 F (10 C)
Relative Humidity: 76%
Pressure (altimeter): 30.09 in. Hg (1019 hPa)
ob: ENFB 190720Z AUTO VRB08KT //// FEW017/// 14/10 Q1019 W///S3
cycle: 7

Station Type Date Time Source
ENFB TAF UTC NOAA

Error!


Example: see airport list